Time;durP1;ratioP1;P1;durP2;ratioP2;P2;SDS_P1;SDS_P2;PMS_P1;PMS_P2;Temp;Humidity;BMP_temperature;BMP_pressure;BME280_temperature;BME280_humidity;BME280_pressure;Samples;Min_cycle;Max_cycle;Signal;HPM_P1;HPM_P2
2024/04/23 00:01:22;;;;;;;6.20;4.45;;;;;;;;;;5390969;26;20007;-62
2024/04/23 00:03:48;;;;;;;7.22;4.40;;;;;;;;;;5375261;26;20027;-61
2024/04/23 00:06:17;;;;;;;6.78;4.65;;;;;;;;;;5401245;26;20018;-60
2024/04/23 00:08:43;;;;;;;8.27;5.00;;;;;;;;;;5386017;26;20000;-62
2024/04/23 00:11:14;;;;;;;6.82;4.78;;;;;;;;;;5389438;26;20005;-59
2024/04/23 00:13:40;;;;;;;7.72;5.07;;;;;;;;;;5379121;26;20375;-61
2024/04/23 00:16:09;;;;;;;7.78;5.05;;;;;;;;;;5379923;26;20011;-61
2024/04/23 00:18:35;;;;;;;7.68;4.55;;;;;;;;;;5379923;26;20370;-62
2024/04/23 00:21:04;;;;;;;7.75;4.75;;;;;;;;;;5389836;26;20007;-61
2024/04/23 00:23:29;;;;;;;6.70;4.55;;;;;;;;;;5383922;26;20012;-61
2024/04/23 00:25:58;;;;;;;8.10;4.70;;;;;;;;;;5388199;26;20008;-61
2024/04/23 00:28:26;;;;;;;7.15;4.78;;;;;;;;;;5385840;26;20329;-61
2024/04/23 00:30:55;;;;;;;9.50;5.10;;;;;;;;;;5379545;26;20008;-61
2024/04/23 00:33:21;;;;;;;9.05;5.00;;;;;;;;;;5379798;26;20012;-61
2024/04/23 00:35:49;;;;;;;7.40;5.03;;;;;;;;;;5378253;26;20081;-61
2024/04/23 00:38:15;;;;;;;8.48;4.70;;;;;;;;;;5374225;26;20443;-62
2024/04/23 00:40:44;;;;;;;7.85;4.90;;;;;;;;;;5379496;26;20055;-62
2024/04/23 00:43:10;;;;;;;7.93;4.95;;;;;;;;;;5379332;26;20011;-62
2024/04/23 00:45:46;;;;;;;8.85;4.90;;;;;;;;;;5379774;26;20429;-61
2024/04/23 00:48:15;;;;;;;8.20;5.20;;;;;;;;;;5394208;26;20015;-58
2024/04/23 00:50:44;;;;;;;9.70;5.20;;;;;;;;;;5379509;26;20472;-58
2024/04/23 00:53:11;;;;;;;10.68;4.80;;;;;;;;;;5379222;26;20402;-59
2024/04/23 00:55:41;;;;;;;9.38;5.32;;;;;;;;;;5379233;26;20000;-58
2024/04/23 00:58:07;;;;;;;8.23;5.03;;;;;;;;;;5379044;26;20004;-58
2024/04/23 01:00:36;;;;;;;8.13;5.38;;;;;;;;;;5394169;26;20351;-57
2024/04/23 01:03:05;;;;;;;7.93;5.28;;;;;;;;;;5378710;26;20078;-57
2024/04/23 01:05:34;;;;;;;8.25;5.15;;;;;;;;;;5381452;26;20452;-58
2024/04/23 01:08:00;;;;;;;8.43;5.45;;;;;;;;;;5390776;26;19996;-59
2024/04/23 01:10:28;;;;;;;10.10;6.07;;;;;;;;;;5394453;26;20011;-57
2024/04/23 01:12:55;;;;;;;9.80;5.82;;;;;;;;;;5391679;26;20351;-54
2024/04/23 01:15:26;;;;;;;8.65;6.03;;;;;;;;;;5393209;26;20004;-55
2024/04/23 01:17:56;;;;;;;11.40;5.68;;;;;;;;;;5365767;26;20000;-57
2024/04/23 01:20:28;;;;;;;9.57;5.43;;;;;;;;;;5393974;26;20000;-59
2024/04/23 01:22:59;;;;;;;9.65;6.47;;;;;;;;;;5378735;26;20008;-58
2024/04/23 01:25:28;;;;;;;10.85;6.10;;;;;;;;;;5377874;26;20019;-57
2024/04/23 01:27:58;;;;;;;10.25;6.28;;;;;;;;;;5386552;26;20467;-59
2024/04/23 01:30:27;;;;;;;8.48;5.78;;;;;;;;;;5384782;26;20004;-58
2024/04/23 01:32:54;;;;;;;10.88;6.38;;;;;;;;;;5386722;26;20538;-59
2024/04/23 01:35:25;;;;;;;10.13;6.20;;;;;;;;;;5379874;26;20039;-59
2024/04/23 01:37:54;;;;;;;11.32;7.47;;;;;;;;;;5380079;26;20505;-59
2024/04/23 01:40:23;;;;;;;8.32;5.47;;;;;;;;;;5378863;26;20004;-57
2024/04/23 01:42:51;;;;;;;10.98;6.25;;;;;;;;;;5378669;26;20013;-59
2024/04/23 01:45:23;;;;;;;11.50;6.15;;;;;;;;;;5379824;26;20008;-59
2024/04/23 01:47:50;;;;;;;10.55;6.45;;;;;;;;;;5379248;26;20014;-58
2024/04/23 01:50:18;;;;;;;9.60;6.32;;;;;;;;;;5393181;26;20008;-57
2024/04/23 01:52:45;;;;;;;10.05;6.30;;;;;;;;;;5393163;26;20511;-58
2024/04/23 01:55:15;;;;;;;11.32;6.63;;;;;;;;;;5386099;26;20040;-57
2024/04/23 01:57:41;;;;;;;9.68;6.43;;;;;;;;;;5378382;26;20550;-59
2024/04/23 02:00:15;;;;;;;10.40;6.18;;;;;;;;;;5378534;26;20454;-59
2024/04/23 02:02:45;;;;;;;8.95;5.45;;;;;;;;;;5378380;26;20335;-58
2024/04/23 02:05:15;;;;;;;12.23;5.90;;;;;;;;;;5378267;26;20411;-59
2024/04/23 02:07:42;;;;;;;9.57;5.87;;;;;;;;;;5378022;26;20016;-59
2024/04/23 02:10:11;;;;;;;11.32;6.60;;;;;;;;;;5378051;26;20010;-59
2024/04/23 02:12:38;;;;;;;10.30;5.93;;;;;;;;;;5392852;26;20011;-59
2024/04/23 02:15:07;;;;;;;9.80;6.50;;;;;;;;;;5388428;26;20041;-56
2024/04/23 02:17:34;;;;;;;11.00;6.32;;;;;;;;;;5393052;26;20020;-58
2024/04/23 02:20:07;;;;;;;14.02;6.25;;;;;;;;;;5378105;26;20001;-59
2024/04/23 02:22:33;;;;;;;9.05;5.75;;;;;;;;;;5380962;26;20000;-59
2024/04/23 02:25:02;;;;;;;10.35;6.35;;;;;;;;;;5399202;26;20000;-59
2024/04/23 02:27:28;;;;;;;9.93;6.38;;;;;;;;;;5392510;26;20001;-59
2024/04/23 02:29:56;;;;;;;8.85;6.10;;;;;;;;;;5378244;26;20008;-59
2024/04/23 02:32:22;;;;;;;11.18;6.30;;;;;;;;;;5377657;26;20019;-59
2024/04/23 02:34:51;;;;;;;9.65;5.85;;;;;;;;;;5364457;26;20622;-55
2024/04/23 02:37:19;;;;;;;9.20;6.00;;;;;;;;;;5378137;26;20004;-59
2024/04/23 02:39:48;;;;;;;10.35;6.93;;;;;;;;;;5381019;26;20004;-59
2024/04/23 02:42:14;;;;;;;11.40;6.95;;;;;;;;;;5381404;26;20011;-56
2024/04/23 02:44:42;;;;;;;9.80;6.40;;;;;;;;;;5395555;26;20012;-59
2024/04/23 02:47:08;;;;;;;10.88;6.03;;;;;;;;;;5380558;26;20015;-58
2024/04/23 02:49:37;;;;;;;12.13;6.40;;;;;;;;;;5396140;26;20450;-59
2024/04/23 02:52:03;;;;;;;11.02;6.88;;;;;;;;;;5395696;26;20073;-57
2024/04/23 02:54:34;;;;;;;10.50;6.70;;;;;;;;;;5381097;26;20000;-59
2024/04/23 02:57:00;;;;;;;11.10;7.07;;;;;;;;;;5381253;26;20012;-59
2024/04/23 02:59:48;;;;;;;9.55;6.15;;;;;;;;;;5398437;26;20011;-58
2024/04/23 03:02:14;;;;;;;10.88;6.82;;;;;;;;;;5392711;26;20015;-55
2024/04/23 03:04:43;;;;;;;12.15;7.47;;;;;;;;;;5380988;26;20015;-55
2024/04/23 03:07:08;;;;;;;11.40;6.72;;;;;;;;;;5391572;26;20016;-53
2024/04/23 03:09:40;;;;;;;12.60;6.78;;;;;;;;;;5398452;26;20015;-56
2024/04/23 03:12:06;;;;;;;11.65;6.43;;;;;;;;;;5395399;26;19996;-57
2024/04/23 03:14:34;;;;;;;10.50;6.82;;;;;;;;;;5395348;26;20000;-56
2024/04/23 03:17:00;;;;;;;11.70;6.35;;;;;;;;;;5380538;26;20081;-57
2024/04/23 03:19:29;;;;;;;12.18;6.38;;;;;;;;;;5395240;26;20331;-58
2024/04/23 03:21:56;;;;;;;10.23;6.53;;;;;;;;;;5395307;26;20012;-57
2024/04/23 03:24:25;;;;;;;11.32;7.25;;;;;;;;;;5395214;26;20072;-56
2024/04/23 03:26:54;;;;;;;11.85;6.28;;;;;;;;;;5375716;26;20012;-56
2024/04/23 03:29:23;;;;;;;13.05;6.90;;;;;;;;;;5395315;26;20019;-58
2024/04/23 03:31:58;;;;;;;12.90;6.63;;;;;;;;;;5381122;26;20008;-59
2024/04/23 03:34:27;;;;;;;11.52;7.20;;;;;;;;;;5396022;26;20200;-58
2024/04/23 03:36:55;;;;;;;13.25;7.28;;;;;;;;;;5401184;26;20007;-59
2024/04/23 03:39:24;;;;;;;11.15;6.38;;;;;;;;;;5401213;26;20084;-58
2024/04/23 03:41:59;;;;;;;11.93;7.15;;;;;;;;;;5374559;26;19999;-57
2024/04/23 03:44:28;;;;;;;12.38;7.60;;;;;;;;;;5398963;26;20000;-58
2024/04/23 03:46:57;;;;;;;13.40;7.70;;;;;;;;;;5393971;26;20000;-54
2024/04/23 03:49:23;;;;;;;11.93;7.05;;;;;;;;;;5395329;26;20000;-57
2024/04/23 03:51:52;;;;;;;12.23;6.82;;;;;;;;;;5401152;26;20032;-57
2024/04/23 03:54:18;;;;;;;10.60;6.50;;;;;;;;;;5401249;26;20080;-57
2024/04/23 03:56:47;;;;;;;12.45;6.93;;;;;;;;;;5385948;26;20000;-58
2024/04/23 03:59:15;;;;;;;13.20;7.78;;;;;;;;;;5388437;26;20019;-56
2024/04/23 04:01:44;;;;;;;10.75;6.65;;;;;;;;;;5394861;26;20003;-57
2024/04/23 04:06:57;;;;;;;10.60;6.38;;;;;;;;;;5397535;26;20081;-58
2024/04/23 04:09:25;;;;;;;12.77;7.00;;;;;;;;;;5394616;26;19996;-57
2024/04/23 04:11:59;;;;;;;14.52;7.38;;;;;;;;;;5394046;26;20081;-53
2024/04/23 04:14:30;;;;;;;12.02;7.03;;;;;;;;;;5395012;26;20110;-58
2024/04/23 04:16:56;;;;;;;13.48;8.07;;;;;;;;;;5400776;26;20004;-56
2024/04/23 04:19:24;;;;;;;14.77;7.35;;;;;;;;;;5385970;26;20010;-59
2024/04/23 04:21:53;;;;;;;12.55;6.63;;;;;;;;;;5394123;26;20096;-58
2024/04/23 04:24:19;;;;;;;11.80;7.60;;;;;;;;;;5393668;26;20362;-55
2024/04/23 04:26:47;;;;;;;11.90;6.85;;;;;;;;;;5379764;26;20353;-59
2024/04/23 04:29:13;;;;;;;11.27;7.40;;;;;;;;;;5379504;26;20078;-58
2024/04/23 04:31:44;;;;;;;14.38;8.35;;;;;;;;;;5398230;26;20077;-55
2024/04/23 04:34:10;;;;;;;11.85;7.32;;;;;;;;;;5400491;26;20003;-58
2024/04/23 04:36:39;;;;;;;13.95;8.10;;;;;;;;;;5397173;26;20473;-58
2024/04/23 04:39:05;;;;;;;12.73;7.28;;;;;;;;;;5390012;26;20007;-58
2024/04/23 04:41:33;;;;;;;13.07;7.55;;;;;;;;;;5383781;26;20008;-58
2024/04/23 04:43:59;;;;;;;12.88;6.78;;;;;;;;;;5379469;26;19996;-59
2024/04/23 04:46:28;;;;;;;13.18;7.15;;;;;;;;;;5393750;26;20012;-59
2024/04/23 04:48:56;;;;;;;14.20;7.55;;;;;;;;;;5378923;26;20102;-59
2024/04/23 04:51:25;;;;;;;12.52;7.00;;;;;;;;;;5380560;26;20578;-59
2024/04/23 04:53:51;;;;;;;12.13;7.70;;;;;;;;;;5379343;26;20015;-58
2024/04/23 04:56:19;;;;;;;12.77;7.38;;;;;;;;;;5394221;26;20425;-56
2024/04/23 04:58:45;;;;;;;15.68;7.60;;;;;;;;;;5394106;26;20000;-53
2024/04/23 05:01:14;;;;;;;13.48;7.70;;;;;;;;;;5379787;26;20011;-60
2024/04/23 05:03:40;;;;;;;14.15;7.68;;;;;;;;;;5390776;26;20073;-57
2024/04/23 05:06:11;;;;;;;12.95;8.05;;;;;;;;;;5394418;26;20015;-60
2024/04/23 05:08:37;;;;;;;12.23;7.57;;;;;;;;;;5379783;26;20026;-60
2024/04/23 05:11:06;;;;;;;14.15;7.38;;;;;;;;;;5395000;26;20456;-58
2024/04/23 05:13:32;;;;;;;13.38;7.88;;;;;;;;;;5382061;26;20378;-62
2024/04/23 05:16:00;;;;;;;14.63;8.23;;;;;;;;;;5391987;26;20011;-61
2024/04/23 05:18:26;;;;;;;14.75;8.48;;;;;;;;;;5394043;26;20098;-59
2024/04/23 05:20:55;;;;;;;15.63;7.93;;;;;;;;;;5383828;26;20007;-61
2024/04/23 05:23:24;;;;;;;14.57;8.10;;;;;;;;;;5373548;26;20011;-61
2024/04/23 05:25:52;;;;;;;13.45;8.05;;;;;;;;;;5380261;26;20094;-60
2024/04/23 05:28:18;;;;;;;12.10;7.65;;;;;;;;;;5379267;26;20336;-61
2024/04/23 05:33:31;;;;;;;12.77;7.85;;;;;;;;;;5381685;26;20044;-61
2024/04/23 05:35:59;;;;;;;13.82;8.57;;;;;;;;;;5379013;26;20427;-62
2024/04/23 05:38:31;;;;;;;13.40;7.82;;;;;;;;;;5393590;26;20008;-60
2024/04/23 05:40:59;;;;;;;15.45;8.43;;;;;;;;;;5379404;26;20012;-58
2024/04/23 05:43:28;;;;;;;14.60;8.45;;;;;;;;;;5380049;26;20016;-61
2024/04/23 05:45:56;;;;;;;13.10;7.88;;;;;;;;;;5392209;26;20005;-62
2024/04/23 05:49:02;;;;;;;15.05;7.95;;;;;;;;;;5379243;26;20000;-60
2024/04/23 05:52:08;;;;;;;14.27;8.68;;;;;;;;;;5389265;26;20085;-62
2024/04/23 05:55:13;;;;;;;13.73;8.15;;;;;;;;;;5378222;26;20031;-60
2024/04/23 05:57:42;;;;;;;15.40;8.35;;;;;;;;;;5395256;26;20015;-62
2024/04/23 06:00:11;;;;;;;14.32;8.70;;;;;;;;;;5390250;26;20158;-61
2024/04/23 06:02:37;;;;;;;14.57;8.32;;;;;;;;;;5392827;26;20015;-62
2024/04/23 06:05:06;;;;;;;15.10;9.40;;;;;;;;;;5379049;26;20008;-61
2024/04/23 06:07:32;;;;;;;14.85;9.10;;;;;;;;;;5389326;26;20001;-59
2024/04/23 06:10:01;;;;;;;13.38;8.27;;;;;;;;;;5378823;26;20004;-61
2024/04/23 06:12:26;;;;;;;13.40;8.60;;;;;;;;;;5382184;26;20000;-62
2024/04/23 06:14:58;;;;;;;14.50;8.70;;;;;;;;;;5382029;26;20519;-64
2024/04/23 06:17:25;;;;;;;15.13;8.60;;;;;;;;;;5379453;26;20000;-60
2024/04/23 06:19:54;;;;;;;15.45;9.15;;;;;;;;;;5381979;26;20000;-60
2024/04/23 06:22:21;;;;;;;14.35;8.35;;;;;;;;;;5381185;26;20031;-60
2024/04/23 06:24:52;;;;;;;12.65;8.48;;;;;;;;;;5381826;26;20358;-60
2024/04/23 06:27:20;;;;;;;15.15;8.50;;;;;;;;;;5382014;26;20008;-60
2024/04/23 06:29:49;;;;;;;13.38;8.55;;;;;;;;;;5381887;26;20012;-56
2024/04/23 06:32:21;;;;;;;13.45;8.43;;;;;;;;;;5376009;26;20001;-60
2024/04/23 06:34:48;;;;;;;12.73;8.38;;;;;;;;;;5381580;26;20383;-61
2024/04/23 06:37:17;;;;;;;13.45;8.30;;;;;;;;;;5380824;26;20015;-61
2024/04/23 06:39:44;;;;;;;14.35;8.30;;;;;;;;;;5379671;26;20019;-59
2024/04/23 06:42:13;;;;;;;13.35;8.23;;;;;;;;;;5377655;26;20081;-58
2024/04/23 06:44:39;;;;;;;16.05;9.50;;;;;;;;;;5404143;26;20004;-60
2024/04/23 06:47:07;;;;;;;13.63;8.60;;;;;;;;;;5397767;26;20078;-61
2024/04/23 06:49:40;;;;;;;14.60;8.77;;;;;;;;;;5379567;26;20007;-58
2024/04/23 06:52:08;;;;;;;14.73;8.70;;;;;;;;;;5383726;26;20023;-60
2024/04/23 06:54:37;;;;;;;15.23;9.20;;;;;;;;;;5376658;26;20079;-58
2024/04/23 06:57:06;;;;;;;12.82;8.45;;;;;;;;;;5371633;26;20344;-59
2024/04/23 06:59:32;;;;;;;14.35;9.38;;;;;;;;;;5379001;26;20004;-58
2024/04/23 07:02:01;;;;;;;13.88;8.20;;;;;;;;;;5381470;26;20000;-60
2024/04/23 07:04:27;;;;;;;15.13;8.45;;;;;;;;;;5396509;26;19995;-59
2024/04/23 07:07:00;;;;;;;14.27;8.57;;;;;;;;;;5381607;26;20337;-60
2024/04/23 07:09:26;;;;;;;13.55;8.02;;;;;;;;;;5411077;26;20012;-60
2024/04/23 07:11:55;;;;;;;13.82;8.55;;;;;;;;;;5381659;26;20050;-60
2024/04/23 07:14:20;;;;;;;14.13;8.20;;;;;;;;;;5361804;26;20023;-59
2024/04/23 07:16:49;;;;;;;14.02;8.57;;;;;;;;;;5376598;26;20001;-59
2024/04/23 07:19:15;;;;;;;15.15;9.23;;;;;;;;;;5377834;26;20000;-60
2024/04/23 07:21:43;;;;;;;13.30;8.18;;;;;;;;;;5379820;26;20347;-57
2024/04/23 07:24:15;;;;;;;14.07;8.70;;;;;;;;;;5381303;26;20007;-60
2024/04/23 07:26:41;;;;;;;13.38;8.57;;;;;;;;;;5382690;26;20027;-60
2024/04/23 07:29:10;;;;;;;13.25;8.25;;;;;;;;;;5402968;26;20008;-59
2024/04/23 07:31:36;;;;;;;13.10;8.68;;;;;;;;;;5380913;26;20434;-61
2024/04/23 07:34:04;;;;;;;14.40;9.02;;;;;;;;;;5375264;26;20004;-60
2024/04/23 07:36:30;;;;;;;12.00;7.70;;;;;;;;;;5380369;26;20716;-61
2024/04/23 07:38:59;;;;;;;13.43;8.18;;;;;;;;;;5382802;26;20000;-62
2024/04/23 07:41:27;;;;;;;14.18;8.18;;;;;;;;;;5380540;26;20027;-59
2024/04/23 07:43:56;;;;;;;14.57;8.93;;;;;;;;;;5382466;26;20043;-61
2024/04/23 07:46:24;;;;;;;13.05;8.25;;;;;;;;;;5380520;26;20008;-61
2024/04/23 07:48:50;;;;;;;13.90;8.57;;;;;;;;;;5366707;26;20011;-60
2024/04/23 07:51:19;;;;;;;14.38;8.63;;;;;;;;;;5381220;26;20000;-60
2024/04/23 07:53:45;;;;;;;12.23;8.18;;;;;;;;;;5395014;26;20000;-60
2024/04/23 07:56:14;;;;;;;12.30;8.68;;;;;;;;;;5388721;26;20008;-59
2024/04/23 07:58:42;;;;;;;13.43;9.07;;;;;;;;;;5379985;26;20005;-61
2024/04/23 08:01:11;;;;;;;14.52;8.82;;;;;;;;;;5379665;26;20016;-59
2024/04/23 08:03:39;;;;;;;13.68;9.00;;;;;;;;;;5379112;26;20050;-60
2024/04/23 08:06:08;;;;;;;13.77;8.75;;;;;;;;;;5388807;26;20021;-59
2024/04/23 08:08:34;;;;;;;12.65;8.10;;;;;;;;;;5379449;26;20004;-61
2024/04/23 08:11:03;;;;;;;15.85;9.45;;;;;;;;;;5379684;26;20364;-61
2024/04/23 08:13:30;;;;;;;15.40;9.30;;;;;;;;;;5369605;26;20009;-60
2024/04/23 08:16:01;;;;;;;14.57;9.43;;;;;;;;;;5376314;26;20525;-60
2024/04/23 08:18:28;;;;;;;12.90;8.75;;;;;;;;;;5379796;26;20352;-61
2024/04/23 08:20:56;;;;;;;12.23;8.13;;;;;;;;;;5380206;26;20020;-61
2024/04/23 08:23:22;;;;;;;16.17;8.75;;;;;;;;;;5379648;26;20459;-61
2024/04/23 08:25:50;;;;;;;13.52;8.18;;;;;;;;;;5394620;26;20005;-61
2024/04/23 08:28:16;;;;;;;11.48;8.10;;;;;;;;;;5369966;26;20017;-60
2024/04/23 08:30:45;;;;;;;15.85;8.98;;;;;;;;;;5381882;26;20089;-59
2024/04/23 08:33:14;;;;;;;14.23;9.55;;;;;;;;;;5394023;26;20512;-60
2024/04/23 08:35:45;;;;;;;14.73;8.55;;;;;;;;;;5380306;26;20069;-59
2024/04/23 08:38:11;;;;;;;15.43;8.43;;;;;;;;;;5378441;26;20000;-60
2024/04/23 08:40:40;;;;;;;14.07;8.50;;;;;;;;;;5377727;26;20008;-61
2024/04/23 08:43:14;;;;;;;13.55;9.07;;;;;;;;;;5380018;26;20023;-58
2024/04/23 08:45:43;;;;;;;12.65;8.68;;;;;;;;;;5378162;26;20007;-61
2024/04/23 08:48:10;;;;;;;13.02;8.32;;;;;;;;;;5379649;26;20072;-59
2024/04/23 08:50:42;;;;;;;13.98;8.52;;;;;;;;;;5380051;26;20055;-60
2024/04/23 08:53:09;;;;;;;12.07;8.50;;;;;;;;;;5394772;26;20534;-57
2024/04/23 08:55:44;;;;;;;13.77;8.48;;;;;;;;;;5387513;26;20016;-59
2024/04/23 08:58:10;;;;;;;13.73;8.65;;;;;;;;;;5391146;26;19999;-60
2024/04/23 09:00:41;;;;;;;16.38;10.45;;;;;;;;;;5384283;26;20009;-59
2024/04/23 09:03:12;;;;;;;15.70;9.98;;;;;;;;;;5378640;26;20004;-60
2024/04/23 09:05:45;;;;;;;14.32;8.38;;;;;;;;;;5393959;26;20145;-60
2024/04/23 09:08:15;;;;;;;12.70;8.98;;;;;;;;;;5393930;26;20007;-59
2024/04/23 09:10:44;;;;;;;12.93;8.63;;;;;;;;;;5374139;26;20026;-59
2024/04/23 09:13:11;;;;;;;12.80;8.52;;;;;;;;;;5384562;26;20344;-58
2024/04/23 09:15:41;;;;;;;13.73;8.25;;;;;;;;;;5373796;26;20008;-60
2024/04/23 09:18:07;;;;;;;14.43;9.23;;;;;;;;;;5378992;26;20004;-58
2024/04/23 09:20:36;;;;;;;16.70;9.55;;;;;;;;;;5368659;26;20089;-62
2024/04/23 09:23:05;;;;;;;13.32;8.38;;;;;;;;;;5376416;26;20070;-60
2024/04/23 09:25:37;;;;;;;13.32;8.73;;;;;;;;;;5359832;26;20078;-60
2024/04/23 09:28:05;;;;;;;14.43;8.48;;;;;;;;;;5362689;26;20023;-58
2024/04/23 09:30:34;;;;;;;12.40;8.13;;;;;;;;;;5368085;26;20030;-61
2024/04/23 09:33:01;;;;;;;12.25;7.97;;;;;;;;;;5358561;26;20020;-60
2024/04/23 09:35:30;;;;;;;13.55;8.63;;;;;;;;;;5368518;26;20097;-56
2024/04/23 09:37:55;;;;;;;14.02;8.15;;;;;;;;;;5376413;26;20077;-54
2024/04/23 09:40:27;;;;;;;11.60;7.22;;;;;;;;;;5372918;26;20012;-62
2024/04/23 09:42:54;;;;;;;12.88;8.15;;;;;;;;;;5357814;26;20517;-65
2024/04/23 09:45:28;;;;;;;14.02;8.50;;;;;;;;;;5362048;26;20028;-63
2024/04/23 09:47:54;;;;;;;14.52;9.25;;;;;;;;;;5367677;26;20036;-62
2024/04/23 09:50:23;;;;;;;13.02;8.88;;;;;;;;;;5365549;26;20037;-59
2024/04/23 09:52:49;;;;;;;15.15;9.57;;;;;;;;;;5368758;26;20417;-59
2024/04/23 09:55:18;;;;;;;12.93;8.63;;;;;;;;;;5386044;26;19996;-55
2024/04/23 09:57:51;;;;;;;14.43;9.10;;;;;;;;;;5359189;26;20019;-58
2024/04/23 10:00:22;;;;;;;12.55;9.48;;;;;;;;;;5353420;26;20005;-58
2024/04/23 10:02:53;;;;;;;16.42;9.82;;;;;;;;;;5372212;26;20022;-59
2024/04/23 10:05:31;;;;;;;15.38;10.07;;;;;;;;;;5368801;26;20524;-58
2024/04/23 10:08:02;;;;;;;14.10;8.73;;;;;;;;;;5373975;26;20077;-57
2024/04/23 10:10:36;;;;;;;14.45;9.55;;;;;;;;;;5378581;26;20027;-58
2024/04/23 10:13:08;;;;;;;13.55;9.05;;;;;;;;;;5369949;26;20027;-57
2024/04/23 10:15:42;;;;;;;14.93;9.13;;;;;;;;;;5360612;26;20321;-66
2024/04/23 10:18:19;;;;;;;13.73;9.35;;;;;;;;;;5369861;26;20188;-68
2024/04/23 10:20:51;;;;;;;12.45;7.65;;;;;;;;;;5361259;26;20019;-67
2024/04/23 10:23:20;;;;;;;14.85;9.18;;;;;;;;;;5354225;26;20175;-60
2024/04/23 10:25:46;;;;;;;13.88;9.23;;;;;;;;;;5360799;26;20055;-62
2024/04/23 10:28:17;;;;;;;14.63;9.90;;;;;;;;;;5364699;26;20008;-68
2024/04/23 10:30:44;;;;;;;12.30;8.68;;;;;;;;;;5380112;26;20352;-61
2024/04/23 10:33:15;;;;;;;12.75;8.65;;;;;;;;;;5377481;26;20004;-61
2024/04/23 10:35:41;;;;;;;;;;;;;;;;;;5378097;26;20012;-57
2024/04/23 10:38:14;;;;;;;10.85;7.93;;;;;;;;;;5377535;26;19925;-60
2024/04/23 10:40:40;;;;;;;14.00;8.27;;;;;;;;;;5364933;26;20023;-60
2024/04/23 10:43:09;;;;;;;15.70;8.65;;;;;;;;;;5372481;26;20008;-59
2024/04/23 10:45:38;;;;;;;12.70;8.82;;;;;;;;;;5355963;26;20008;-61
2024/04/23 10:48:09;;;;;;;14.90;8.90;;;;;;;;;;5360487;26;20000;-61
2024/04/23 10:50:37;;;;;;;13.55;10.25;;;;;;;;;;5361828;26;20411;-59
2024/04/23 10:53:04;;;;;;;15.57;9.35;;;;;;;;;;5366596;26;20078;-61
2024/04/23 10:55:33;;;;;;;11.40;7.97;;;;;;;;;;5363475;26;20484;-60
2024/04/23 10:58:01;;;;;;;11.70;7.90;;;;;;;;;;5379690;26;20008;-59
2024/04/23 11:00:36;;;;;;;14.70;8.65;;;;;;;;;;5410481;26;20014;-61
2024/04/23 11:03:14;;;;;;;11.80;7.75;;;;;;;;;;5385610;26;20014;-60
2024/04/23 11:05:47;;;;;;;15.13;8.10;;;;;;;;;;5394604;26;20008;-60
2024/04/23 11:08:21;;;;;;;14.15;7.57;;;;;;;;;;5381455;26;20334;-60
2024/04/23 11:10:51;;;;;;;12.82;7.88;;;;;;;;;;5374650;26;20359;-60
2024/04/23 11:13:27;;;;;;;12.35;7.40;;;;;;;;;;5369606;26;20000;-60
2024/04/23 11:15:58;;;;;;;14.75;8.23;;;;;;;;;;5374093;26;20005;-60
2024/04/23 11:18:37;;;;;;;;;;;;;;;;;;5374137;26;20019;-61
2024/04/23 11:21:09;;;;;;;12.27;8.35;;;;;;;;;;5377259;26;19926;-67
2024/04/23 11:23:38;;;;;;;11.18;7.90;;;;;;;;;;5380409;26;20078;-58
2024/04/23 11:26:09;;;;;;;13.32;8.05;;;;;;;;;;5376940;26;20020;-61
2024/04/23 11:28:36;;;;;;;14.93;8.95;;;;;;;;;;5375888;26;20082;-61
2024/04/23 11:31:05;;;;;;;15.15;8.90;;;;;;;;;;5376301;26;20031;-60
2024/04/23 11:33:34;;;;;;;11.40;7.75;;;;;;;;;;5383655;26;20351;-61
2024/04/23 11:36:03;;;;;;;12.60;8.43;;;;;;;;;;5378815;26;20004;-60
2024/04/23 11:38:39;;;;;;;12.60;8.38;;;;;;;;;;5376914;26;20460;-60
2024/04/23 11:41:14;;;;;;;11.77;8.20;;;;;;;;;;5368563;26;20016;-60
2024/04/23 11:43:43;;;;;;;10.93;7.22;;;;;;;;;;5393253;26;20000;-61
2024/04/23 11:46:15;;;;;;;13.43;7.82;;;;;;;;;;5368827;26;20008;-61
2024/04/23 11:48:44;;;;;;;12.52;8.02;;;;;;;;;;5380312;26;20008;-59
2024/04/23 11:51:14;;;;;;;11.65;7.97;;;;;;;;;;5376206;26;20014;-61
2024/04/23 11:53:40;;;;;;;14.33;8.57;;;;;;;;;;5380283;26;20035;-61
2024/04/23 11:56:09;;;;;;;13.00;8.10;;;;;;;;;;5380946;26;20410;-61
2024/04/23 11:58:39;;;;;;;12.43;8.52;;;;;;;;;;5380510;26;20000;-61
2024/04/23 12:01:08;;;;;;;14.93;9.10;;;;;;;;;;5362960;26;20028;-59
2024/04/23 12:03:34;;;;;;;14.02;8.10;;;;;;;;;;5373660;26;20128;-61
2024/04/23 12:06:06;;;;;;;12.98;8.45;;;;;;;;;;5380899;26;20393;-62
2024/04/23 12:08:32;;;;;;;14.00;8.95;;;;;;;;;;5363838;26;20086;-61
2024/04/23 12:11:01;;;;;;;14.65;9.05;;;;;;;;;;5364811;26;20015;-60
2024/04/23 12:13:27;;;;;;;15.13;9.68;;;;;;;;;;5378500;26;20005;-62
2024/04/23 12:15:56;;;;;;;13.15;9.23;;;;;;;;;;5367741;26;20031;-62
2024/04/23 12:18:22;;;;;;;15.27;9.85;;;;;;;;;;5377038;26;20001;-61
2024/04/23 12:20:51;;;;;;;13.88;8.90;;;;;;;;;;5389856;26;20012;-62
2024/04/23 12:23:20;;;;;;;14.98;9.82;;;;;;;;;;5379745;26;20466;-62
2024/04/23 12:25:49;;;;;;;14.77;9.13;;;;;;;;;;5395397;26;20323;-62
2024/04/23 12:28:15;;;;;;;15.50;9.55;;;;;;;;;;5365208;26;20005;-62
2024/04/23 12:30:43;;;;;;;12.68;8.88;;;;;;;;;;5379858;26;20011;-58
2024/04/23 12:33:10;;;;;;;17.35;10.00;;;;;;;;;;5376529;26;20085;-60
2024/04/23 12:35:39;;;;;;;13.02;8.65;;;;;;;;;;5364414;26;20025;-62
2024/04/23 12:38:06;;;;;;;16.02;9.32;;;;;;;;;;5377030;26;20429;-56
2024/04/23 12:40:38;;;;;;;13.85;8.77;;;;;;;;;;5375130;26;20019;-61
2024/04/23 12:43:07;;;;;;;16.38;9.32;;;;;;;;;;5367758;26;20079;-62
2024/04/23 12:45:36;;;;;;;15.32;9.05;;;;;;;;;;5368391;26;20008;-60
2024/04/23 12:48:03;;;;;;;17.30;9.70;;;;;;;;;;5371367;26;20011;-61
2024/04/23 12:50:32;;;;;;;16.10;9.80;;;;;;;;;;5370493;26;20012;-60
2024/04/23 12:52:58;;;;;;;15.68;9.70;;;;;;;;;;5372768;26;20001;-62
2024/04/23 12:55:27;;;;;;;13.82;8.85;;;;;;;;;;5380268;26;19996;-61
2024/04/23 12:57:57;;;;;;;14.02;8.73;;;;;;;;;;5397419;26;20477;-62
2024/04/23 13:00:26;;;;;;;14.43;9.00;;;;;;;;;;5380311;26;20452;-61
2024/04/23 13:02:52;;;;;;;14.77;8.50;;;;;;;;;;5377400;26;20265;-62
2024/04/23 13:05:21;;;;;;;15.25;9.07;;;;;;;;;;5370943;26;20466;-62
2024/04/23 13:07:47;;;;;;;13.77;8.90;;;;;;;;;;5394610;26;20426;-62
2024/04/23 13:10:17;;;;;;;14.48;9.52;;;;;;;;;;5372810;26;20008;-62
2024/04/23 13:12:44;;;;;;;18.48;10.05;;;;;;;;;;5401042;26;20645;-62
2024/04/23 13:15:15;;;;;;;14.75;9.95;;;;;;;;;;5382918;26;20012;-61
2024/04/23 13:17:42;;;;;;;14.65;9.80;;;;;;;;;;5371065;26;20005;-62
2024/04/23 13:20:11;;;;;;;15.70;9.60;;;;;;;;;;5367965;26;20024;-63
2024/04/23 13:22:37;;;;;;;17.40;9.55;;;;;;;;;;5372436;26;20000;-62
2024/04/23 13:25:09;;;;;;;14.73;9.43;;;;;;;;;;5391422;26;20486;-60
2024/04/23 13:27:35;;;;;;;18.10;9.60;;;;;;;;;;5380210;26;20000;-62
2024/04/23 13:30:05;;;;;;;17.33;9.82;;;;;;;;;;5384614;26;20004;-62
2024/04/23 13:32:36;;;;;;;13.98;9.57;;;;;;;;;;5386375;26;20339;-59
2024/04/23 13:35:05;;;;;;;14.07;9.73;;;;;;;;;;5382706;26;20000;-63
2024/04/23 13:37:31;;;;;;;13.45;8.77;;;;;;;;;;5379200;26;20455;-62
2024/04/23 13:40:02;;;;;;;13.57;8.77;;;;;;;;;;5395995;26;20005;-62
2024/04/23 13:42:28;;;;;;;13.75;9.32;;;;;;;;;;5376125;26;20012;-62
2024/04/23 13:44:57;;;;;;;14.50;9.30;;;;;;;;;;5382438;26;20024;-61
2024/04/23 13:47:23;;;;;;;14.93;8.75;;;;;;;;;;5367598;26;20019;-62
2024/04/23 13:49:54;;;;;;;16.85;9.52;;;;;;;;;;5387726;26;20008;-62
2024/04/23 13:52:20;;;;;;;14.10;9.18;;;;;;;;;;5382550;26;19997;-62
2024/04/23 13:54:49;;;;;;;16.95;8.90;;;;;;;;;;5387193;26;20011;-62
2024/04/23 13:57:14;;;;;;;14.52;9.10;;;;;;;;;;5381489;26;20417;-60
2024/04/23 13:59:43;;;;;;;15.43;8.93;;;;;;;;;;5397125;26;20014;-59
2024/04/23 14:02:09;;;;;;;16.70;9.90;;;;;;;;;;5362005;26;20016;-61
2024/04/23 14:04:43;;;;;;;15.25;9.27;;;;;;;;;;5380939;26;20008;-60
2024/04/23 14:07:13;;;;;;;13.20;9.20;;;;;;;;;;5374172;26;20417;-60
2024/04/23 14:09:41;;;;;;;15.25;10.27;;;;;;;;;;5384975;26;20015;-62
2024/04/23 14:12:08;;;;;;;16.50;10.63;;;;;;;;;;5375040;26;20079;-62
2024/04/23 14:14:37;;;;;;;19.20;10.38;;;;;;;;;;5414066;26;19999;-60
2024/04/23 14:17:03;;;;;;;13.95;9.02;;;;;;;;;;5403567;26;20011;-62
2024/04/23 14:19:33;;;;;;;14.25;8.90;;;;;;;;;;5383766;26;20016;-62
2024/04/23 14:22:00;;;;;;;13.50;8.77;;;;;;;;;;5373683;26;20015;-62
2024/04/23 14:24:31;;;;;;;13.68;8.80;;;;;;;;;;5378242;26;20000;-62
2024/04/23 14:26:57;;;;;;;16.08;9.18;;;;;;;;;;5389740;26;20011;-62
2024/04/23 14:29:26;;;;;;;14.38;9.38;;;;;;;;;;5382643;26;20000;-60
2024/04/23 14:31:52;;;;;;;13.80;8.75;;;;;;;;;;5379704;26;20019;-61
2024/04/23 14:34:24;;;;;;;15.35;9.38;;;;;;;;;;5374380;26;20004;-60
2024/04/23 14:36:51;;;;;;;14.90;8.18;;;;;;;;;;5371424;26;20000;-59
2024/04/23 14:39:19;;;;;;;13.88;8.90;;;;;;;;;;5375093;26;20008;-62
2024/04/23 14:41:48;;;;;;;12.52;8.60;;;;;;;;;;5383705;26;20015;-61
2024/04/23 14:44:16;;;;;;;13.32;8.23;;;;;;;;;;5399002;26;20014;-62
2024/04/23 14:46:42;;;;;;;13.05;8.63;;;;;;;;;;5380143;26;20086;-61